createdAt,value
2023-03-21T00:02:27.474Z,97314.09
2023-03-21T00:05:00.614Z,97311.50
2023-03-21T00:07:34.196Z,97308.81
2023-03-21T00:10:14.259Z,97307.97
2023-03-21T00:12:43.783Z,97312.47
2023-03-21T00:15:13.668Z,97314.19
2023-03-21T00:17:44.922Z,97307.09
2023-03-21T00:20:15.393Z,97307.09
2023-03-21T00:22:43.575Z,97309.78
2023-03-21T00:25:11.709Z,97310.75
2023-03-21T00:27:56.822Z,97304.53
2023-03-21T00:30:29.333Z,97309.91
2023-03-21T00:32:58.498Z,97308.16
2023-03-21T00:35:58.503Z,97304.53
2023-03-21T00:38:17.819Z,97309.03
2023-03-21T00:40:49.246Z,97301.94
2023-03-21T00:43:19.307Z,97303.66
2023-03-21T00:45:48.939Z,97304.63
2023-03-21T00:48:18.736Z,97291.28
2023-03-21T00:50:47.279Z,97293.03
2023-03-21T00:53:16.320Z,97300.22
2023-03-21T00:55:44.576Z,97295.72
2023-03-21T00:58:12.754Z,97297.53
2023-03-21T01:00:41.534Z,97294.84
2023-03-21T01:03:23.882Z,97296.66
2023-03-21T01:06:05.976Z,97287.78
2023-03-21T01:08:48.431Z,97285.09
2023-03-21T01:11:18.726Z,97287.78
2023-03-21T01:13:53.728Z,97294.94
2023-03-21T01:16:26.165Z,97288.72
2023-03-21T01:18:56.182Z,97289.69
2023-03-21T01:21:24.416Z,97292.38
2023-03-21T01:23:52.747Z,97287.84
2023-03-21T01:26:20.978Z,97279.78
2023-03-21T01:28:49.364Z,97279.91
2023-03-21T01:31:18.133Z,97270.91
2023-03-21T01:33:46.458Z,97282.59
2023-03-21T01:36:21.922Z,97278.16
2023-03-21T01:38:52.576Z,97280.84
2023-03-21T01:41:26.172Z,97278.16
2023-03-21T01:43:56.839Z,97272.78
2023-03-21T01:46:47.841Z,97279.03
2023-03-21T01:49:56.731Z,97263.88
2023-03-21T01:52:36.994Z,97270.13
2023-03-21T01:55:11.967Z,97262.13
2023-03-21T01:58:04.759Z,97263.00
2023-03-21T02:00:41.523Z,97258.63
2023-03-21T02:03:34.912Z,97258.63
2023-03-21T02:06:31.977Z,97252.38
2023-03-21T02:09:10.604Z,97249.69
2023-03-21T02:11:38.979Z,97244.34
2023-03-21T02:14:10.097Z,97242.59
2023-03-21T02:16:56.113Z,97234.56
2023-03-21T02:20:12.607Z,97236.41
2023-03-21T02:22:47.796Z,97236.41
2023-03-21T02:25:43.378Z,97240.78
2023-03-21T02:28:13.077Z,97239.06
2023-03-21T02:31:06.879Z,97231.97
2023-03-21T02:34:01.882Z,97229.28
2023-03-21T02:36:41.511Z,97234.66
2023-03-21T02:39:13.232Z,97229.28
2023-03-21T02:41:46.948Z,97224.78
2023-03-21T02:44:20.060Z,97228.41
2023-03-21T02:46:59.674Z,97226.59
2023-03-21T02:49:36.746Z,97225.75
2023-03-21T02:52:15.556Z,97221.34
2023-03-21T02:54:48.982Z,97221.34
2023-03-21T02:57:22.882Z,97227.59
2023-03-21T02:59:57.054Z,97232.06
2023-03-21T03:02:34.913Z,97230.25
2023-03-21T03:05:11.583Z,97233.88
2023-03-21T03:07:49.409Z,97222.22
2023-03-21T03:10:24.990Z,97227.59
2023-03-21T03:12:58.809Z,97228.53
2023-03-21T03:15:33.560Z,97224.03
2023-03-21T03:18:03.352Z,97232.19
2023-03-21T03:20:39.539Z,97230.34
2023-03-21T03:23:14.626Z,97236.56
2023-03-21T03:25:49.051Z,97233.88
2023-03-21T03:28:19.791Z,97237.56
2023-03-21T03:31:01.176Z,97234.88
2023-03-21T03:33:41.497Z,97238.50
2023-03-21T03:36:21.414Z,97240.22
2023-03-21T03:38:53.575Z,97238.38
2023-03-21T03:41:26.042Z,97239.34
2023-03-21T03:44:00.277Z,97242.03
2023-03-21T03:46:33.509Z,97240.22
2023-03-21T03:49:03.495Z,97239.34
2023-03-21T03:51:34.003Z,97245.59
2023-03-21T03:54:26.727Z,97242.03
2023-03-21T03:56:56.507Z,97236.69
2023-03-21T03:59:25.287Z,97240.31
2023-03-21T04:02:30.267Z,97237.63
2023-03-21T04:04:58.664Z,97243.84
2023-03-21T04:07:27.873Z,97240.31
2023-03-21T04:09:59.344Z,97242.97
2023-03-21T04:12:30.069Z,97242.16
2023-03-21T04:15:17.367Z,97234.94
2023-03-21T04:17:50.544Z,97240.31
2023-03-21T04:20:33.821Z,97246.53
2023-03-21T04:23:04.332Z,97242.97
2023-03-21T04:25:35.004Z,97243.84
2023-03-21T04:28:07.476Z,97244.91
2023-03-21T04:31:02.266Z,97246.81
2023-03-21T04:33:38.445Z,97243.38
2023-03-21T04:36:09.573Z,97247.03
2023-03-21T04:38:39.182Z,97249.72
2023-03-21T04:41:07.965Z,97254.31
2023-03-21T04:43:37.448Z,97249.06
2023-03-21T04:46:06.461Z,97252.56
2023-03-21T04:48:34.834Z,97246.44
2023-03-21T04:51:03.242Z,97250.97
2023-03-21T04:53:32.709Z,97248.34
2023-03-21T04:56:00.976Z,97241.28
2023-03-21T04:58:30.501Z,97249.34
2023-03-21T05:01:02.614Z,97246.66
2023-03-21T05:03:34.651Z,97242.22
2023-03-21T05:06:03.203Z,97259.19
2023-03-21T05:08:31.476Z,97250.38
2023-03-21T05:10:59.806Z,97250.28
2023-03-21T05:13:29.084Z,97254.59
2023-03-21T05:15:57.362Z,97258.03
2023-03-21T05:18:27.522Z,97258.03
2023-03-21T05:21:07.992Z,97263.22
2023-03-21T05:23:38.390Z,97252.69
2023-03-21T05:26:08.001Z,97264.94
2023-03-21T05:28:44.659Z,97255.94
2023-03-21T05:31:15.975Z,97263.13
2023-03-21T05:33:47.137Z,97264.84
2023-03-21T05:36:18.528Z,97265.59
2023-03-21T05:38:46.899Z,97262.06
2023-03-21T05:41:18.158Z,97270.00
2023-03-21T05:43:47.468Z,97272.59
2023-03-21T05:46:17.176Z,97268.00
2023-03-21T05:48:47.308Z,97261.47
2023-03-21T05:51:17.870Z,97261.31
2023-03-21T05:53:48.594Z,97272.78
2023-03-21T05:56:17.849Z,97269.25
2023-03-21T05:58:53.377Z,97270.97
2023-03-21T06:01:23.466Z,97271.91
2023-03-21T06:04:01.243Z,97275.47
2023-03-21T06:06:30.805Z,97267.44
2023-03-21T06:09:02.645Z,97276.34
2023-03-21T06:11:33.390Z,97274.53
2023-03-21T06:14:24.113Z,97281.63
2023-03-21T06:17:17.542Z,97278.97
2023-03-21T06:20:01.781Z,97274.44
2023-03-21T06:22:36.483Z,97280.66
2023-03-21T06:25:04.905Z,97274.34
2023-03-21T06:27:33.114Z,97274.34
2023-03-21T06:30:01.326Z,97284.88
2023-03-21T06:32:35.029Z,97275.00
2023-03-21T06:35:11.696Z,97277.59
2023-03-21T06:37:40.037Z,97272.22
2023-03-21T06:40:09.814Z,97269.53
2023-03-21T06:42:38.046Z,97271.25
2023-03-21T06:45:15.632Z,97273.94
2023-03-21T06:47:44.625Z,97273.84
2023-03-21T06:50:34.367Z,97274.69
2023-03-21T06:53:02.739Z,97280.00
2023-03-21T06:55:34.888Z,97268.38
2023-03-21T06:58:03.420Z,97275.47
2023-03-21T07:00:32.981Z,97279.00
2023-03-21T07:03:02.048Z,97280.75
2023-03-21T07:05:30.788Z,97276.22
2023-03-21T07:08:01.328Z,97270.84
2023-03-21T07:10:31.208Z,97271.72
2023-03-21T07:13:06.299Z,97262.72
2023-03-21T07:15:41.378Z,97267.22
2023-03-21T07:18:09.839Z,97265.41
2023-03-21T07:20:38.380Z,97263.56
2023-03-21T07:23:08.108Z,97258.13
2023-03-21T07:25:36.566Z,97266.19
2023-03-21T07:28:09.137Z,97263.50
2023-03-21T07:30:37.917Z,97258.13
2023-03-21T07:33:07.158Z,97258.03
2023-03-21T07:35:36.661Z,97257.16
2023-03-21T07:38:05.384Z,97255.34
2023-03-21T07:40:36.623Z,97259.72
2023-03-21T07:43:05.018Z,97256.22
2023-03-21T07:45:36.023Z,97249.00
2023-03-21T07:48:08.700Z,97251.69
2023-03-21T07:50:37.052Z,97249.88
2023-03-21T07:53:05.225Z,97246.25
2023-03-21T07:55:35.141Z,97241.72
2023-03-21T07:58:05.006Z,97245.38
2023-03-21T08:00:33.069Z,97246.25
2023-03-21T08:03:01.322Z,97241.72
2023-03-21T08:05:30.362Z,97238.06
2023-03-21T08:07:58.502Z,97241.63
2023-03-21T08:10:26.778Z,97231.72
2023-03-21T08:12:54.950Z,97230.03
2023-03-21T08:15:24.681Z,97231.72
2023-03-21T08:17:52.857Z,97230.03
2023-03-21T08:20:22.260Z,97221.00
2023-03-21T08:22:50.875Z,97215.63
2023-03-21T08:25:19.829Z,97213.81
2023-03-21T08:27:48.343Z,97214.69
2023-03-21T08:30:17.516Z,97217.38
2023-03-21T08:32:47.085Z,97216.38
2023-03-21T08:35:16.214Z,97212.88
2023-03-21T08:37:44.489Z,97209.31
2023-03-21T08:40:14.013Z,97203.94
2023-03-21T08:42:42.294Z,97202.97
2023-03-21T08:45:11.124Z,97197.59
2023-03-21T08:47:39.486Z,97207.50
2023-03-21T08:50:10.270Z,97192.25
2023-03-21T08:52:38.414Z,97204.72
2023-03-21T08:55:07.290Z,97206.53
2023-03-21T08:57:35.537Z,97204.81
2023-03-21T09:00:07.264Z,97200.28
2023-03-21T09:02:35.548Z,97194.91
2023-03-21T09:05:06.090Z,97201.16
2023-03-21T09:07:36.435Z,97199.44
2023-03-21T09:10:21.025Z,97194.91
2023-03-21T09:12:49.972Z,97189.56
2023-03-21T09:15:20.235Z,97188.72
2023-03-21T09:17:52.615Z,97186.03
2023-03-21T09:20:26.067Z,97188.72
2023-03-21T09:22:56.360Z,97194.09
2023-03-21T09:25:24.695Z,97189.56
2023-03-21T09:27:53.882Z,97189.56
2023-03-21T09:30:25.595Z,97186.03
2023-03-21T09:32:55.972Z,97186.03
2023-03-21T09:35:24.942Z,97185.94
2023-03-21T09:37:53.289Z,97182.38
2023-03-21T09:40:25.623Z,97177.00
2023-03-21T09:42:59.878Z,97178.75
2023-03-21T09:45:34.190Z,97170.78
2023-03-21T09:48:02.771Z,97169.81
2023-03-21T09:50:32.946Z,97166.28
2023-03-21T09:53:02.299Z,97164.56
2023-03-21T09:55:34.907Z,97170.78
2023-03-21T09:58:06.941Z,97168.94
2023-03-21T10:00:37.493Z,97165.31
2023-03-21T10:03:10.300Z,97161.88
2023-03-21T10:05:40.632Z,97162.72
2023-03-21T10:08:10.778Z,97162.72
2023-03-21T10:10:44.989Z,97157.34
2023-03-21T10:13:15.269Z,97152.84
2023-03-21T10:15:43.568Z,97147.47
2023-03-21T10:18:14.284Z,97143.94
2023-03-21T10:20:42.992Z,97151.97
2023-03-21T10:23:13.947Z,97153.81
2023-03-21T10:25:44.398Z,97136.00
2023-03-21T10:28:16.313Z,97138.66
2023-03-21T10:30:46.181Z,97139.53
2023-03-21T10:33:15.467Z,97136.84
2023-03-21T10:35:46.423Z,97135.88
2023-03-21T10:38:16.324Z,97134.19
2023-03-21T10:40:45.943Z,97132.34
2023-03-21T10:43:22.362Z,97135.03
2023-03-21T10:45:50.727Z,97127.94
2023-03-21T10:48:19.094Z,97131.50
2023-03-21T10:50:48.713Z,97126.13
2023-03-21T10:53:19.226Z,97121.63
2023-03-21T10:55:49.873Z,97118.06
2023-03-21T10:58:25.291Z,97122.56
2023-03-21T11:00:56.097Z,97110.03
2023-03-21T11:03:25.189Z,97114.41
2023-03-21T11:05:55.247Z,97119.78
2023-03-21T11:08:23.412Z,97118.81
2023-03-21T11:11:01.865Z,97111.66
2023-03-21T11:13:35.842Z,97107.13
2023-03-21T11:16:07.113Z,97106.16
2023-03-21T11:18:35.422Z,97094.56
2023-03-21T11:21:05.836Z,97090.94
2023-03-21T11:23:35.060Z,97089.94
2023-03-21T11:26:04.632Z,97085.56
2023-03-21T11:28:34.888Z,97073.84
2023-03-21T11:31:03.532Z,97079.22
2023-03-21T11:33:34.103Z,97071.06
2023-03-21T11:36:03.244Z,97069.25
2023-03-21T11:38:33.084Z,97073.75
2023-03-21T11:41:02.207Z,97072.78
2023-03-21T11:43:33.542Z,97066.56
2023-03-21T11:46:02.690Z,97067.41
2023-03-21T11:48:30.884Z,97058.38
2023-03-21T11:51:02.508Z,97062.06
2023-03-21T11:53:36.813Z,97047.66
2023-03-21T11:56:10.875Z,97038.75
2023-03-21T11:58:48.092Z,97044.97
2023-03-21T12:01:19.401Z,97035.09
2023-03-21T12:04:06.113Z,97031.53
2023-03-21T12:06:36.684Z,97032.53
2023-03-21T12:09:11.744Z,97028.88
2023-03-21T12:11:45.275Z,97027.16
2023-03-21T12:14:18.575Z,97028.88
2023-03-21T12:16:55.046Z,97018.13
2023-03-21T12:19:41.557Z,97020.81
2023-03-21T12:22:12.133Z,97017.19
2023-03-21T12:24:41.604Z,97016.31
2023-03-21T12:27:13.045Z,97009.13
2023-03-21T12:29:48.648Z,97000.09
2023-03-21T12:32:26.324Z,97005.47
2023-03-21T12:35:08.772Z,97006.44
2023-03-21T12:37:39.694Z,96998.38
2023-03-21T12:40:11.576Z,96997.41
2023-03-21T12:42:59.517Z,96999.16
2023-03-21T12:45:37.447Z,96995.59
2023-03-21T12:48:18.442Z,96991.09
2023-03-21T12:50:46.859Z,96983.03
2023-03-21T12:53:26.175Z,96979.50
2023-03-21T12:55:54.624Z,96982.16
2023-03-21T12:58:24.497Z,96975.94
2023-03-21T13:00:54.865Z,96969.63
2023-03-21T13:03:30.577Z,96963.38
2023-03-21T13:06:08.077Z,96960.69
2023-03-21T13:08:38.480Z,96958.03
2023-03-21T13:11:07.106Z,96959.84
2023-03-21T13:13:36.233Z,96954.47
2023-03-21T13:16:10.996Z,96951.78
2023-03-21T13:18:48.992Z,96954.47
2023-03-21T13:21:18.355Z,96954.47
2023-03-21T13:23:57.778Z,96955.34
2023-03-21T13:26:33.710Z,96945.59
2023-03-21T13:29:02.015Z,96943.72
2023-03-21T13:31:48.831Z,96938.34
2023-03-21T13:34:20.364Z,96936.53
2023-03-21T13:36:48.561Z,96933.88
2023-03-21T13:39:19.053Z,96922.25
2023-03-21T13:41:49.045Z,96924.94
2023-03-21T13:44:32.887Z,96926.69
2023-03-21T13:47:03.655Z,96917.75
2023-03-21T13:49:33.549Z,96918.75
2023-03-21T13:52:02.323Z,96922.25
2023-03-21T13:54:46.021Z,96924.00
2023-03-21T13:57:23.300Z,96920.44
2023-03-21T13:59:51.682Z,96918.63
2023-03-21T14:02:31.151Z,96911.53
2023-03-21T14:05:06.363Z,96911.44
2023-03-21T14:07:35.564Z,96908.75
2023-03-21T14:10:06.349Z,96904.34
2023-03-21T14:12:38.228Z,96899.84
2023-03-21T14:15:16.380Z,96897.03
2023-03-21T14:17:52.425Z,96890.81
2023-03-21T14:20:22.166Z,96888.97
2023-03-21T14:22:50.491Z,96893.41
2023-03-21T14:25:19.394Z,96888.88
2023-03-21T14:27:49.660Z,96885.34
2023-03-21T14:30:22.400Z,96885.34
2023-03-21T14:32:52.017Z,96890.72
2023-03-21T14:35:20.213Z,96881.69
2023-03-21T14:37:48.563Z,96879.97
2023-03-21T14:40:20.956Z,96885.22
2023-03-21T14:42:49.644Z,96870.06
2023-03-21T14:45:20.656Z,96870.06
2023-03-21T14:48:01.288Z,96871.81
2023-03-21T14:50:33.570Z,96871.81
2023-03-21T14:53:01.863Z,96871.81
2023-03-21T14:55:29.952Z,96868.25
2023-03-21T14:57:58.265Z,96866.44
2023-03-21T15:00:27.462Z,96861.94
2023-03-21T15:02:55.911Z,96860.94
2023-03-21T15:05:27.442Z,96862.78
2023-03-21T15:07:57.550Z,96854.63
2023-03-21T15:10:26.292Z,96851.94
2023-03-21T15:12:55.409Z,96850.97
2023-03-21T15:15:26.048Z,96859.03
2023-03-21T15:17:56.071Z,96856.44
2023-03-21T15:20:27.244Z,96853.53
2023-03-21T15:22:56.424Z,96855.38
2023-03-21T15:25:27.708Z,96855.38
2023-03-21T15:27:55.836Z,96859.03
2023-03-21T15:30:25.030Z,96852.78
2023-03-21T15:32:53.307Z,96855.47
2023-03-21T15:35:22.681Z,96852.78
2023-03-21T15:37:56.863Z,96857.31
2023-03-21T15:40:26.316Z,96850.22
2023-03-21T15:43:05.915Z,96851.09
2023-03-21T15:45:34.060Z,96854.63
2023-03-21T15:48:03.729Z,96852.03
2023-03-21T15:50:35.585Z,96850.22
2023-03-21T15:53:06.817Z,96849.34
2023-03-21T15:55:40.931Z,96846.66
2023-03-21T15:58:13.470Z,96853.03
2023-03-21T16:00:42.697Z,96847.66
2023-03-21T16:03:17.115Z,96855.69
2023-03-21T16:05:50.173Z,96861.06
2023-03-21T16:08:21.247Z,96857.53
2023-03-21T16:10:50.096Z,96859.34
2023-03-21T16:13:20.292Z,96853.13
2023-03-21T16:15:48.571Z,96851.28
2023-03-21T16:18:17.221Z,96850.44
2023-03-21T16:20:46.290Z,96852.28
2023-03-21T16:23:14.926Z,96854.94
2023-03-21T16:25:44.830Z,96856.78
2023-03-21T16:28:13.942Z,96863.88
2023-03-21T16:30:42.197Z,96859.47
2023-03-21T16:33:12.193Z,96863.13
2023-03-21T16:35:40.822Z,96867.63
2023-03-21T16:38:08.997Z,96866.75
2023-03-21T16:40:39.562Z,96868.56
2023-03-21T16:43:09.576Z,96874.81
2023-03-21T16:45:38.245Z,96882.88
2023-03-21T16:48:09.032Z,96878.47
2023-03-21T16:50:38.298Z,96881.16
2023-03-21T16:53:06.641Z,96885.66
2023-03-21T16:55:34.974Z,96882.13
2023-03-21T16:58:03.249Z,96886.53
2023-03-21T17:00:32.947Z,96886.63
2023-03-21T17:03:02.258Z,96886.63
2023-03-21T17:05:31.480Z,96888.47
2023-03-21T17:08:02.253Z,96884.91
2023-03-21T17:10:31.585Z,96888.56
2023-03-21T17:12:59.939Z,96886.84
2023-03-21T17:15:28.295Z,96891.34
2023-03-21T17:17:58.091Z,96893.09
2023-03-21T17:20:27.447Z,96901.22
2023-03-21T17:22:55.664Z,96895.03
2023-03-21T17:25:23.950Z,96901.22
2023-03-21T17:27:53.141Z,96900.38
2023-03-21T17:30:23.155Z,96901.34
2023-03-21T17:32:51.731Z,96906.69
2023-03-21T17:35:22.039Z,96916.56
2023-03-21T17:37:51.372Z,96914.75
2023-03-21T17:40:21.711Z,96920.13
2023-03-21T17:42:50.028Z,96929.16
2023-03-21T17:45:18.670Z,96934.53
2023-03-21T17:47:46.912Z,96942.56
2023-03-21T17:50:16.995Z,96939.03
2023-03-21T17:52:47.674Z,96950.63
2023-03-21T17:55:17.956Z,96948.88
2023-03-21T17:57:46.211Z,96964.03
2023-03-21T18:00:17.056Z,96962.31
2023-03-21T18:02:45.424Z,96965.00
2023-03-21T18:05:13.732Z,96965.00
2023-03-21T18:10:32.361Z,96971.34
2023-03-21T18:13:00.511Z,96973.03
2023-03-21T18:15:30.535Z,96975.72
2023-03-21T18:17:59.277Z,96976.59
2023-03-21T18:20:49.885Z,96980.16
2023-03-21T18:23:18.887Z,96976.59
2023-03-21T18:25:48.540Z,96983.66
2023-03-21T18:28:20.368Z,96989.03
2023-03-21T18:31:07.742Z,96988.19
2023-03-21T18:33:38.223Z,96986.34
2023-03-21T18:36:07.795Z,96989.91
2023-03-21T18:38:36.577Z,96981.84
2023-03-21T18:41:06.651Z,96989.78
2023-03-21T18:46:23.359Z,96987.97
2023-03-21T18:48:51.977Z,96996.88
2023-03-21T18:51:20.639Z,97003.97
2023-03-21T18:53:49.090Z,97002.13
2023-03-21T18:57:05.784Z,97003.00
2023-03-21T18:59:07.530Z,97009.25
2023-03-21T19:01:36.029Z,97008.38
2023-03-21T19:06:53.226Z,97015.38
2023-03-21T19:09:29.409Z,97022.44
2023-03-21T19:12:01.473Z,97023.31
2023-03-21T19:14:29.723Z,97021.47
2023-03-21T19:17:55.787Z,97021.38
2023-03-21T19:19:47.875Z,97031.13
2023-03-21T19:22:16.219Z,97032.97
2023-03-21T19:24:44.584Z,97025.75
2023-03-21T19:27:14.882Z,97031.13
2023-03-21T19:29:43.316Z,97034.69
2023-03-21T19:32:11.538Z,97030.19
2023-03-21T19:34:39.803Z,97035.44
2023-03-21T19:37:07.948Z,97038.13
2023-03-21T19:39:36.253Z,97045.31
2023-03-21T19:42:15.969Z,97041.66
2023-03-21T19:44:46.933Z,97042.53
2023-03-21T19:47:15.143Z,97047.91
2023-03-21T19:50:29.583Z,97040.69
2023-03-21T19:52:31.955Z,97054.03
2023-03-21T19:55:00.209Z,97050.38
2023-03-21T19:57:28.555Z,97053.91
2023-03-21T19:59:58.252Z,97053.91
2023-03-21T20:02:35.704Z,97064.53
2023-03-21T20:05:05.414Z,97064.53
2023-03-21T20:07:33.763Z,97068.09
2023-03-21T20:10:02.034Z,97062.59
2023-03-21T20:12:30.783Z,97067.13
2023-03-21T20:15:12.080Z,97066.16
2023-03-21T20:17:44.927Z,97072.41
2023-03-21T20:20:17.585Z,97068.72
2023-03-21T20:25:34.563Z,97074.84
2023-03-21T20:28:25.073Z,97078.41
2023-03-21T20:30:54.707Z,97075.72
2023-03-21T20:33:25.061Z,97075.72
2023-03-21T20:38:45.928Z,97077.44
2023-03-21T20:41:14.246Z,97069.38
2023-03-21T20:46:32.244Z,97084.53
2023-03-21T20:49:00.499Z,97088.09
2023-03-21T20:54:17.936Z,97082.59
2023-03-21T20:56:46.378Z,97083.47
2023-03-21T20:59:25.567Z,97088.84
2023-03-21T21:01:57.484Z,97084.31
2023-03-21T21:04:46.937Z,97081.63
2023-03-21T21:07:17.221Z,97088.72
2023-03-21T21:09:46.298Z,97086.91
2023-03-21T21:12:15.055Z,97094.97
2023-03-21T21:14:43.838Z,97095.81
2023-03-21T21:20:02.608Z,97093.97
2023-03-21T21:22:31.569Z,97090.44
2023-03-21T21:24:59.933Z,97087.75
2023-03-21T21:27:28.596Z,97086.78
2023-03-21T21:29:57.615Z,97086.78
2023-03-21T21:32:27.371Z,97097.53
2023-03-21T21:34:56.314Z,97095.72
2023-03-21T21:37:25.144Z,97100.22
2023-03-21T21:39:54.142Z,97091.28
2023-03-21T21:42:22.595Z,97099.25
2023-03-21T21:44:50.908Z,97097.53
2023-03-21T21:47:19.267Z,97093.03
2023-03-21T21:49:49.344Z,97096.56
2023-03-21T21:52:24.257Z,97093.88
2023-03-21T21:54:52.581Z,97092.16
2023-03-21T21:57:20.870Z,97096.66
2023-03-21T21:59:53.983Z,97098.47
2023-03-21T22:02:25.501Z,97092.16
2023-03-21T22:04:56.956Z,97095.81
2023-03-21T22:07:27.565Z,97100.34
2023-03-21T22:09:56.241Z,97098.47
2023-03-21T22:12:24.607Z,97101.28
2023-03-21T22:14:52.937Z,97103.97
2023-03-21T22:17:21.106Z,97108.47
2023-03-21T22:20:04.299Z,97110.31
2023-03-21T22:22:34.281Z,97108.47
2023-03-21T22:25:02.620Z,97106.75
2023-03-21T22:27:31.156Z,97108.59
2023-03-21T22:30:04.596Z,97109.44
2023-03-21T22:32:32.841Z,97104.09
2023-03-21T22:35:02.468Z,97111.28
2023-03-21T22:37:31.135Z,97114.94
2023-03-21T22:40:00.835Z,97104.19
2023-03-21T22:42:29.243Z,97116.75
2023-03-21T22:44:57.411Z,97113.19
2023-03-21T22:47:25.652Z,97112.34
2023-03-21T22:49:53.865Z,97112.34
2023-03-21T22:52:22.088Z,97110.63
2023-03-21T22:54:50.433Z,97112.34
2023-03-21T22:57:20.752Z,97111.56
2023-03-21T22:59:48.983Z,97116.13
2023-03-21T23:02:17.245Z,97112.44
2023-03-21T23:04:46.057Z,97118.78
2023-03-21T23:07:14.331Z,97115.25
2023-03-21T23:09:42.677Z,97108.06
2023-03-21T23:12:11.050Z,97113.44
2023-03-21T23:14:40.716Z,97110.81
2023-03-21T23:17:10.248Z,97118.88
2023-03-21T23:19:40.900Z,97118.03
2023-03-21T23:22:09.304Z,97126.09
2023-03-21T23:24:37.615Z,97117.16
2023-03-21T23:27:06.146Z,97116.31
2023-03-21T23:29:34.439Z,97107.38
2023-03-21T23:32:04.091Z,97111.03
2023-03-21T23:34:32.373Z,97116.41
2023-03-21T23:37:00.789Z,97119.09
2023-03-21T23:39:29.270Z,97118.22
2023-03-21T23:41:58.778Z,97119.09
2023-03-21T23:44:27.588Z,97124.47
2023-03-21T23:46:55.878Z,97111.16
2023-03-21T23:49:26.430Z,97114.69
2023-03-21T23:51:54.757Z,97117.38
2023-03-21T23:54:22.984Z,97111.16
2023-03-21T23:56:51.311Z,97115.53
2023-03-21T23:59:19.656Z,97112.00
